createdAt,value
2022-10-15T00:05:10.743Z,2.00
2022-10-15T00:10:42.456Z,0.00
2022-10-15T00:16:14.315Z,1.00
2022-10-15T00:21:46.407Z,2.00
2022-10-15T00:27:18.141Z,1.00
2022-10-15T00:32:49.753Z,0.00
2022-10-15T00:38:21.475Z,2.00
2022-10-15T00:46:15.193Z,2.00
2022-10-15T00:51:46.837Z,2.00
2022-10-15T00:57:18.550Z,1.00
2022-10-15T01:13:48.921Z,2.00
2022-10-15T01:19:20.275Z,1.00
2022-10-15T01:24:52.370Z,2.00
2022-10-15T01:30:24.114Z,1.00
2022-10-15T01:35:56.010Z,2.00
2022-10-15T01:41:27.868Z,1.00
2022-10-15T01:46:59.699Z,0.00
2022-10-15T01:58:03.482Z,0.00
2022-10-15T02:03:35.351Z,0.00
2022-10-15T02:11:29.181Z,2.00
2022-10-15T02:17:01.286Z,0.00
2022-10-15T02:22:34.468Z,1.00
2022-10-15T02:28:06.214Z,1.00
2022-10-15T02:33:37.933Z,1.00
2022-10-15T02:39:09.611Z,2.00
2022-10-15T02:44:41.519Z,0.00
2022-10-15T02:50:13.211Z,1.00
2022-10-15T02:55:45.016Z,1.00
2022-10-15T03:01:16.967Z,2.00
2022-10-15T03:06:48.619Z,2.00
2022-10-15T03:17:52.275Z,2.00
2022-10-15T03:23:24.500Z,2.00
2022-10-15T03:28:56.139Z,1.00
2022-10-15T03:31:19.376Z,2.00
2022-10-15T03:36:51.141Z,1.00
2022-10-15T03:42:23.152Z,1.00
2022-10-15T03:47:54.904Z,2.00
2022-10-15T03:53:26.619Z,2.00
2022-10-15T03:58:58.574Z,2.00
2022-10-15T04:04:30.039Z,0.00
2022-10-15T04:10:02.044Z,1.00
2022-10-15T04:15:33.819Z,2.00
2022-10-15T04:21:05.566Z,2.00
2022-10-15T04:26:37.511Z,2.00
2022-10-15T04:32:09.257Z,2.00
2022-10-15T04:37:41.059Z,2.00
2022-10-15T04:43:13.269Z,0.00
2022-10-15T04:48:44.894Z,1.00
2022-10-15T04:54:17.025Z,2.00
2022-10-15T04:59:51.445Z,2.00
2022-10-15T05:05:20.337Z,3.00
2022-10-15T05:10:52.107Z,5.00
2022-10-15T05:16:24.022Z,16.00
2022-10-15T05:21:55.630Z,41.00
2022-10-15T05:27:27.515Z,87.00
2022-10-15T05:32:59.501Z,141.00
2022-10-15T05:38:31.247Z,262.00
2022-10-15T05:44:03.180Z,436.00
2022-10-15T05:49:34.799Z,621.00
2022-10-15T05:55:06.494Z,1359.00
2022-10-15T06:00:38.236Z,2143.00
2022-10-15T06:06:09.778Z,3505.00
2022-10-15T06:11:41.709Z,3558.00
2022-10-15T06:17:13.441Z,2546.00
2022-10-15T06:22:45.406Z,2350.00
2022-10-15T06:28:17.040Z,2320.00
2022-10-15T06:33:48.797Z,3384.00
2022-10-15T06:39:20.421Z,5251.00
2022-10-15T06:44:52.419Z,7438.00
2022-10-15T06:50:24.391Z,9182.00
2022-10-15T06:55:56.221Z,9419.00
2022-10-15T07:01:28.044Z,12962.00
2022-10-15T07:06:59.666Z,14849.00
2022-10-15T07:12:31.753Z,12676.00
2022-10-15T07:18:03.413Z,14671.00
2022-10-15T07:23:35.020Z,14459.00
2022-10-15T07:29:06.618Z,16610.00
2022-10-15T07:34:38.320Z,14846.00
2022-10-15T07:40:10.276Z,15181.00
2022-10-15T07:45:42.056Z,16080.00
2022-10-15T07:51:13.863Z,22740.00
2022-10-15T07:56:45.222Z,22456.00
2022-10-15T08:02:16.998Z,20716.00
2022-10-15T08:13:18.006Z,22032.00
2022-10-15T08:18:49.732Z,19737.00
2022-10-15T08:24:21.499Z,13977.00
2022-10-15T08:29:53.206Z,13156.00
2022-10-15T08:35:25.054Z,19973.00
2022-10-15T08:40:56.742Z,18904.00
2022-10-15T08:46:28.618Z,18372.00
2022-10-15T08:52:00.298Z,14245.00
2022-10-15T09:03:03.752Z,21245.00
2022-10-15T09:08:36.017Z,23606.00
2022-10-15T09:14:10.272Z,20030.00
2022-10-15T09:36:19.834Z,22084.00
2022-10-15T09:41:51.397Z,19349.00
2022-10-15T09:47:23.378Z,2777.00
2022-10-15T09:52:55.109Z,4581.00
2022-10-15T09:58:26.911Z,8910.00
2022-10-15T10:09:30.309Z,8273.00
2022-10-15T10:20:34.426Z,6317.00
2022-10-15T10:26:06.069Z,1.00
2022-10-15T10:31:37.918Z,12154.00
2022-10-15T10:37:09.707Z,8900.00
2022-10-15T10:42:41.356Z,8999.00
2022-10-15T10:48:13.184Z,5868.00
2022-10-15T10:53:44.985Z,14417.00
2022-10-15T10:59:16.902Z,11574.00
2022-10-15T11:07:09.089Z,4625.00
2022-10-15T11:12:40.966Z,5491.00
2022-10-15T11:18:13.023Z,5935.00
2022-10-15T11:23:45.031Z,10357.00
2022-10-15T11:29:16.732Z,13873.00
2022-10-15T11:34:48.622Z,15673.00
2022-10-15T11:40:20.511Z,22158.00
2022-10-15T11:45:52.283Z,23304.00
2022-10-15T11:51:23.590Z,15649.00
2022-10-15T11:56:55.211Z,20968.00
2022-10-15T12:02:27.061Z,16827.00
2022-10-15T12:07:58.976Z,19476.00
2022-10-15T12:13:30.355Z,19735.00
2022-10-15T12:19:02.508Z,22868.00
2022-10-15T12:24:34.415Z,19221.00
2022-10-15T12:30:06.267Z,18540.00
2022-10-15T12:35:38.273Z,20831.00
2022-10-15T12:41:09.821Z,23850.00
2022-10-15T12:46:41.508Z,18022.00
2022-10-15T12:52:13.562Z,20043.00
2022-10-15T12:57:45.080Z,21487.00
2022-10-15T13:03:16.764Z,23599.00
2022-10-15T13:08:48.284Z,20668.00
2022-10-15T13:14:19.910Z,24682.00
2022-10-15T13:19:51.321Z,19898.00
2022-10-15T13:25:23.413Z,24381.00
2022-10-15T13:30:56.349Z,23811.00
2022-10-15T13:36:28.265Z,18995.00
2022-10-15T13:41:59.902Z,16301.00
2022-10-15T13:47:33.492Z,19658.00
2022-10-15T13:53:05.172Z,18671.00
2022-10-15T13:58:36.754Z,21206.00
2022-10-15T14:04:08.864Z,18710.00
2022-10-15T14:09:40.626Z,20674.00
2022-10-15T14:15:17.821Z,18178.00
2022-10-15T14:20:51.433Z,15218.00
2022-10-15T14:26:22.852Z,15310.00
2022-10-15T14:31:54.551Z,16522.00
2022-10-15T14:37:26.327Z,15575.00
2022-10-15T14:42:58.149Z,14756.00
2022-10-15T14:48:29.756Z,15663.00
2022-10-15T14:54:01.653Z,1151.00
2022-10-15T14:59:33.644Z,573.00
2022-10-15T15:05:05.682Z,406.00
2022-10-15T15:10:38.372Z,310.00
2022-10-15T15:16:09.940Z,330.00
2022-10-15T15:21:41.751Z,320.00
2022-10-15T15:27:13.399Z,457.00
2022-10-15T15:32:45.286Z,242.00
2022-10-15T15:38:17.117Z,251.00
2022-10-15T15:43:48.804Z,319.00
2022-10-15T15:49:20.611Z,347.00
2022-10-15T15:54:52.354Z,356.00
2022-10-15T16:00:24.103Z,264.00
2022-10-15T16:05:56.060Z,189.00
2022-10-15T16:11:27.762Z,128.00
2022-10-15T16:16:59.876Z,77.00
2022-10-15T16:22:31.717Z,37.00
2022-10-15T16:28:03.368Z,28.00
2022-10-15T16:33:35.158Z,17.00
2022-10-15T16:39:06.828Z,10.00
2022-10-15T16:44:38.837Z,5.00
2022-10-15T16:50:10.754Z,2.00
2022-10-15T16:55:42.440Z,1.00
2022-10-15T17:01:13.972Z,7.00
2022-10-15T17:12:15.349Z,10.00
2022-10-15T17:17:47.222Z,10.00
2022-10-15T17:23:18.964Z,10.00
2022-10-15T17:28:50.828Z,11.00
2022-10-15T17:34:22.722Z,11.00
2022-10-15T17:39:54.754Z,10.00
2022-10-15T17:45:26.355Z,11.00
2022-10-15T17:50:58.140Z,10.00
2022-10-15T18:02:00.351Z,11.00
2022-10-15T18:07:31.111Z,10.00
2022-10-15T18:13:03.742Z,11.00
2022-10-15T18:18:35.383Z,10.00
2022-10-15T18:24:07.241Z,11.00
2022-10-15T18:29:39.132Z,10.00
2022-10-15T18:35:11.137Z,11.00
2022-10-15T18:40:42.802Z,11.00
2022-10-15T18:46:14.531Z,11.00
2022-10-15T18:51:46.884Z,10.00
2022-10-15T18:57:18.970Z,11.00
2022-10-15T19:02:50.759Z,9.00
2022-10-15T19:08:22.435Z,10.00
2022-10-15T19:13:54.006Z,11.00
2022-10-15T19:19:25.650Z,10.00
2022-10-15T19:24:57.435Z,11.00
2022-10-15T19:30:29.357Z,2.00
2022-10-15T19:36:00.943Z,2.00
2022-10-15T19:41:32.732Z,1.00
2022-10-15T19:47:04.665Z,1.00
2022-10-15T19:52:36.546Z,1.00
2022-10-15T19:58:08.001Z,1.00
2022-10-15T20:03:39.686Z,2.00
2022-10-15T20:09:11.580Z,2.00
2022-10-15T20:14:43.282Z,1.00
2022-10-15T20:20:15.282Z,2.00
2022-10-15T20:25:48.190Z,2.00
2022-10-15T20:31:20.228Z,1.00
2022-10-15T20:36:51.870Z,2.00
2022-10-15T20:53:29.122Z,1.00
2022-10-15T20:59:00.778Z,2.00
2022-10-15T21:10:02.204Z,1.00
2022-10-15T21:15:33.892Z,2.00
2022-10-15T21:26:38.601Z,2.00
2022-10-15T21:32:10.376Z,2.00
2022-10-15T21:37:42.019Z,2.00
2022-10-15T21:48:45.662Z,2.00
2022-10-15T21:54:17.326Z,2.00
2022-10-15T21:59:48.900Z,1.00
2022-10-15T22:05:20.810Z,2.00
2022-10-15T22:10:52.527Z,1.00
2022-10-15T22:16:24.437Z,2.00
2022-10-15T22:21:56.144Z,1.00
2022-10-15T22:27:27.966Z,1.00
2022-10-15T22:32:59.722Z,2.00
2022-10-15T22:38:31.485Z,2.00
2022-10-15T22:44:03.321Z,3.00
2022-10-15T22:49:35.323Z,0.00
2022-10-15T22:55:06.868Z,1.00
2022-10-15T23:00:38.618Z,3.00
2022-10-15T23:06:10.423Z,1.00
2022-10-15T23:11:42.066Z,1.00
2022-10-15T23:17:13.918Z,0.00
2022-10-15T23:22:45.878Z,0.00
2022-10-15T23:28:17.992Z,1.00
2022-10-15T23:33:49.888Z,1.00
2022-10-15T23:39:21.626Z,1.00
2022-10-15T23:44:53.272Z,1.00
2022-10-15T23:50:25.147Z,1.00
2022-10-15T23:55:57.171Z,1.00
